Time;durP1;ratioP1;P1;durP2;ratioP2;P2;SDS_P1;SDS_P2;PMS_P1;PMS_P2;Temp;Humidity;BMP_temperature;BMP_pressure;BME280_temperature;BME280_humidity;BME280_pressure;Samples;Min_cycle;Max_cycle;Signal;HPM_P1;HPM_P2
2021/12/31 06:49:11;;;;;;;4.55;1.50;;;;;;;;;;10439052;27;20385;-86
2021/12/31 06:54:12;;;;;;;4.75;1.75;;;;;;;;;;10437484;28;20029;-84
2021/12/31 06:59:14;;;;;;;4.70;1.90;;;;;;;;;;10429437;27;20391;-85
2021/12/31 07:04:15;;;;;;;3.67;1.60;;;;;;;;;;10441553;27;20124;-85
2021/12/31 07:09:16;;;;;;;4.28;1.83;;;;;;;;;;10425136;27;20029;-85
2021/12/31 07:14:18;;;;;;;;;;;;;;;;;;10425281;27;20038;-85
2021/12/31 07:19:19;;;;;;;2.78;1.55;;;;;;;;;;10422317;28;19916;-85
2021/12/31 07:24:20;;;;;;;;;;;;;;;;;;10412289;28;20094;-85
2021/12/31 07:29:21;;;;;;;2.78;1.50;;;;;;;;;;10420049;27;20004;-86
2021/12/31 07:34:22;;;;;;;;;;;;;;;;;;10416548;27;20141;-86
2021/12/31 07:39:24;;;;;;;3.67;1.58;;;;;;;;;;10415017;28;19906;-85
2021/12/31 07:44:25;;;;;;;2.45;1.05;;;;;;;;;;10415441;27;20025;-84
2021/12/31 07:49:26;;;;;;;;;;;;;;;;;;10417805;28;20590;-85
2021/12/31 07:54:27;;;;;;;3.38;1.35;;;;;;;;;;10413113;28;19916;-86
2021/12/31 07:59:28;;;;;;;;;;;;;;;;;;10394531;28;20026;-83
2021/12/31 08:04:29;;;;;;;2.00;1.30;;;;;;;;;;10387673;28;19905;-82
2021/12/31 08:09:31;;;;;;;2.10;1.00;;;;;;;;;;10393428;28;20491;-82
2021/12/31 08:14:32;;;;;;;2.40;1.05;;;;;;;;;;10402145;28;20082;-81
2021/12/31 08:19:33;;;;;;;3.08;1.23;;;;;;;;;;10403906;28;20030;-82
2021/12/31 08:24:34;;;;;;;2.40;1.45;;;;;;;;;;10407740;28;20033;-82
2021/12/31 08:29:36;;;;;;;3.00;1.30;;;;;;;;;;10412215;28;20083;-81
2021/12/31 08:34:38;;;;;;;2.95;1.55;;;;;;;;;;10404519;28;20120;-81
2021/12/31 08:39:39;;;;;;;3.58;1.10;;;;;;;;;;10404219;28;20094;-82
2021/12/31 08:44:40;;;;;;;4.43;1.45;;;;;;;;;;10410625;28;20041;-81
2021/12/31 08:49:49;;;;;;;2.70;1.52;;;;;;;;;;10415068;28;20026;-81
2021/12/31 08:54:50;;;;;;;2.67;1.60;;;;;;;;;;10411369;28;20055;-82
2021/12/31 08:59:51;;;;;;;2.58;1.40;;;;;;;;;;10404704;28;20026;-82
2021/12/31 09:04:52;;;;;;;5.50;1.88;;;;;;;;;;10403074;28;20034;-83
2021/12/31 09:09:54;;;;;;;3.55;1.42;;;;;;;;;;10397136;28;20030;-82
2021/12/31 09:14:55;;;;;;;2.53;1.45;;;;;;;;;;10401476;28;20046;-81
2021/12/31 09:19:56;;;;;;;3.40;1.40;;;;;;;;;;10400767;28;20087;-81
2021/12/31 09:25:00;;;;;;;4.50;1.70;;;;;;;;;;10398224;28;20132;-82
2021/12/31 09:30:01;;;;;;;3.08;1.65;;;;;;;;;;10397959;28;20506;-82
2021/12/31 09:35:06;;;;;;;2.42;1.70;;;;;;;;;;10399891;28;20112;-82
2021/12/31 09:40:08;;;;;;;3.13;2.08;;;;;;;;;;10399659;28;20028;-80
2021/12/31 09:45:09;;;;;;;4.05;1.77;;;;;;;;;;10390299;28;20066;-82
2021/12/31 09:50:10;;;;;;;2.78;1.42;;;;;;;;;;10386173;28;20026;-81
2021/12/31 09:55:11;;;;;;;2.38;1.48;;;;;;;;;;10384188;28;20041;-82
2021/12/31 10:00:12;;;;;;;5.15;1.55;;;;;;;;;;10387468;28;20053;-83
2021/12/31 10:05:13;;;;;;;3.17;1.70;;;;;;;;;;10395601;28;20081;-80
2021/12/31 10:10:16;;;;;;;3.00;1.40;;;;;;;;;;10399368;28;20126;-81
2021/12/31 10:15:17;;;;;;;3.80;1.70;;;;;;;;;;10383896;28;20045;-81
2021/12/31 10:20:19;;;;;;;3.00;1.98;;;;;;;;;;10386881;28;20022;-80
2021/12/31 10:25:21;;;;;;;2.80;1.55;;;;;;;;;;10404798;28;20022;-80
2021/12/31 10:30:23;;;;;;;3.40;1.58;;;;;;;;;;10389545;28;20121;-82
2021/12/31 10:35:24;;;;;;;4.60;1.92;;;;;;;;;;10377270;28;20030;-82
2021/12/31 10:40:30;;;;;;;2.60;1.73;;;;;;;;;;10379170;28;20022;-83
2021/12/31 10:45:31;;;;;;;4.40;1.55;;;;;;;;;;10375091;28;20033;-81
2021/12/31 10:50:32;;;;;;;2.78;1.60;;;;;;;;;;10389532;28;20490;-80
2021/12/31 10:55:39;;;;;;;3.15;1.80;;;;;;;;;;10389981;28;20022;-80
2021/12/31 11:00:44;;;;;;;4.65;1.80;;;;;;;;;;10388873;28;20065;-80
2021/12/31 11:05:45;;;;;;;2.97;1.88;;;;;;;;;;10391488;28;20033;-80
2021/12/31 11:10:46;;;;;;;2.80;2.20;;;;;;;;;;10393310;28;20030;-80
2021/12/31 11:15:50;;;;;;;4.50;2.00;;;;;;;;;;10384990;28;20038;-80
2021/12/31 11:20:52;;;;;;;2.58;1.98;;;;;;;;;;10386080;28;20026;-80
2021/12/31 11:26:00;;;;;;;3.50;1.90;;;;;;;;;;10384994;28;20089;-83
2021/12/31 11:31:17;;;;;;;3.47;2.03;;;;;;;;;;10382760;28;20395;-82
2021/12/31 11:36:36;;;;;;;3.33;2.08;;;;;;;;;;10400906;28;20050;-83
2021/12/31 11:41:37;;;;;;;3.45;1.77;;;;;;;;;;10393220;28;20040;-82
2021/12/31 11:46:42;;;;;;;3.00;1.77;;;;;;;;;;10389519;28;20038;-81
2021/12/31 11:51:57;;;;;;;3.47;2.20;;;;;;;;;;10394520;28;20026;-81
2021/12/31 11:56:59;;;;;;;2.33;1.95;;;;;;;;;;10393799;28;20026;-84
2021/12/31 12:02:08;;;;;;;3.80;1.95;;;;;;;;;;10393234;28;20026;-80
2021/12/31 12:07:12;;;;;;;3.00;1.60;;;;;;;;;;10405130;28;20440;-85
2021/12/31 12:12:33;;;;;;;3.72;1.92;;;;;;;;;;10396426;28;20034;-86
2021/12/31 12:17:34;;;;;;;4.13;2.05;;;;;;;;;;10402345;28;20106;-85
2021/12/31 12:22:49;;;;;;;4.25;2.40;;;;;;;;;;10400340;28;20478;-86
2021/12/31 12:27:54;;;;;;;3.25;1.90;;;;;;;;;;10408806;28;20018;-84
2021/12/31 12:33:07;;;;;;;3.47;1.90;;;;;;;;;;10410457;28;20399;-85
2021/12/31 12:38:16;;;;;;;2.88;2.08;;;;;;;;;;10405905;28;20044;-86
2021/12/31 12:43:43;;;;;;;2.83;1.75;;;;;;;;;;10408769;28;20021;-85
2021/12/31 12:48:46;;;;;;;2.15;1.73;;;;;;;;;;10406908;28;20156;-87
2021/12/31 12:53:49;;;;;;;4.63;2.03;;;;;;;;;;10402254;28;20037;-86
2021/12/31 12:58:54;;;;;;;2.70;1.60;;;;;;;;;;10402488;28;20026;-85
2021/12/31 13:03:56;;;;;;;2.60;1.70;;;;;;;;;;10402719;28;20447;-86
2021/12/31 13:09:15;;;;;;;3.03;1.85;;;;;;;;;;10401006;28;20544;-86
2021/12/31 13:14:18;;;;;;;2.85;1.40;;;;;;;;;;10402945;28;20105;-86
2021/12/31 13:19:28;;;;;;;2.75;1.70;;;;;;;;;;10402118;28;20101;-86
2021/12/31 13:24:29;;;;;;;2.30;1.80;;;;;;;;;;10398969;28;20029;-85
2021/12/31 13:29:33;;;;;;;3.80;2.50;;;;;;;;;;10394390;28;20018;-85
2021/12/31 13:34:39;;;;;;;4.43;2.72;;;;;;;;;;10393716;28;20026;-85
2021/12/31 13:39:42;;;;;;;3.15;1.90;;;;;;;;;;10407025;28;20085;-83
2021/12/31 13:44:48;;;;;;;3.65;1.80;;;;;;;;;;10414307;28;20407;-84
2021/12/31 13:49:50;;;;;;;3.45;2.13;;;;;;;;;;10400821;28;20026;-85
2021/12/31 13:55:14;;;;;;;4.00;2.20;;;;;;;;;;10395067;28;20418;-85
2021/12/31 14:00:15;;;;;;;2.97;1.80;;;;;;;;;;10404326;27;20042;-84
2021/12/31 14:05:19;;;;;;;2.65;1.75;;;;;;;;;;10398069;28;20030;-83
2021/12/31 14:10:31;;;;;;;3.22;1.80;;;;;;;;;;10400506;28;20018;-84
2021/12/31 14:15:42;;;;;;;3.95;2.08;;;;;;;;;;10419639;28;20018;-84
2021/12/31 14:20:44;;;;;;;3.08;1.90;;;;;;;;;;10402363;28;20037;-84
2021/12/31 14:25:46;;;;;;;6.13;4.38;;;;;;;;;;10404674;28;20030;-84
2021/12/31 14:30:49;;;;;;;2.85;1.83;;;;;;;;;;10415854;28;20022;-83
2021/12/31 14:35:53;;;;;;;3.08;2.03;;;;;;;;;;10418858;28;20022;-85
2021/12/31 14:41:02;;;;;;;4.05;2.13;;;;;;;;;;10401790;28;20051;-85
2021/12/31 14:46:03;;;;;;;3.25;2.05;;;;;;;;;;10400279;28;20053;-85
2021/12/31 14:51:04;;;;;;;3.53;1.80;;;;;;;;;;10399040;28;20113;-85
2021/12/31 14:56:05;;;;;;;2.00;1.48;;;;;;;;;;10394509;28;20102;-85
2021/12/31 15:01:09;;;;;;;2.63;1.80;;;;;;;;;;10395800;28;20034;-85
2021/12/31 15:06:10;;;;;;;4.03;1.92;;;;;;;;;;10397231;28;20128;-85
2021/12/31 15:11:11;;;;;;;2.42;1.52;;;;;;;;;;10405761;28;20030;-85
2021/12/31 15:16:15;;;;;;;3.85;1.98;;;;;;;;;;10408341;28;20029;-85
2021/12/31 15:21:18;;;;;;;3.25;1.80;;;;;;;;;;10409445;28;20051;-85
2021/12/31 15:26:20;;;;;;;3.15;2.10;;;;;;;;;;10405597;28;20093;-85
2021/12/31 15:31:21;;;;;;;4.10;2.25;;;;;;;;;;10404977;28;20026;-83
2021/12/31 15:36:22;;;;;;;3.10;2.13;;;;;;;;;;10408917;28;20045;-85
2021/12/31 15:41:23;;;;;;;3.28;1.85;;;;;;;;;;10407278;28;20026;-85
2021/12/31 15:46:24;;;;;;;3.42;2.30;;;;;;;;;;10403836;28;20073;-86
2021/12/31 15:51:27;;;;;;;5.57;2.67;;;;;;;;;;10404206;28;20034;-85
2021/12/31 15:56:28;;;;;;;5.88;2.60;;;;;;;;;;10403485;28;20030;-85
2021/12/31 16:01:29;;;;;;;3.80;1.80;;;;;;;;;;10404116;28;20093;-85
2021/12/31 16:06:30;;;;;;;5.95;3.13;;;;;;;;;;10402418;28;20047;-84
2021/12/31 16:11:31;;;;;;;;;;;;;;;;;;10403350;28;20087;-85
2021/12/31 16:16:32;;;;;;;3.67;2.38;;;;;;;;;;10400284;28;20000;-85
2021/12/31 16:21:33;;;;;;;4.95;2.70;;;;;;;;;;10401453;28;20391;-85
2021/12/31 16:26:34;;;;;;;3.58;2.08;;;;;;;;;;10404116;28;20038;-85
2021/12/31 16:31:35;;;;;;;5.82;2.63;;;;;;;;;;10403245;28;20026;-81
2021/12/31 16:36:37;;;;;;;2.78;2.22;;;;;;;;;;10398654;28;20030;-81
2021/12/31 16:41:38;;;;;;;3.78;2.55;;;;;;;;;;10416406;28;20105;-81
2021/12/31 16:46:39;;;;;;;2.88;2.25;;;;;;;;;;10400602;28;20037;-81
2021/12/31 16:51:39;;;;;;;3.95;2.75;;;;;;;;;;10399612;28;20022;-82
2021/12/31 16:56:41;;;;;;;4.47;2.75;;;;;;;;;;10378756;28;20066;-81
2021/12/31 17:01:42;;;;;;;5.55;2.60;;;;;;;;;;10380792;28;20019;-81
2021/12/31 17:06:43;;;;;;;4.60;3.25;;;;;;;;;;10378050;28;20053;-81
2021/12/31 17:11:44;;;;;;;4.68;2.85;;;;;;;;;;10376557;28;20026;-82
2021/12/31 17:16:46;;;;;;;4.63;2.90;;;;;;;;;;10388046;28;20057;-80
2021/12/31 17:21:47;;;;;;;4.60;2.90;;;;;;;;;;10402604;28;20170;-82
2021/12/31 17:26:48;;;;;;;7.15;4.15;;;;;;;;;;10397363;28;20091;-82
2021/12/31 17:31:49;;;;;;;4.93;3.72;;;;;;;;;;10389838;28;20026;-82
2021/12/31 17:36:50;;;;;;;;;;;;;;;;;;10390549;28;20022;-81
2021/12/31 17:41:51;;;;;;;7.35;4.38;;;;;;;;;;10397164;28;19906;-82
2021/12/31 17:46:52;;;;;;;;;;;;;;;;;;10393158;28;20064;-82
2021/12/31 17:51:53;;;;;;;5.20;3.67;;;;;;;;;;10390221;28;19905;-82
2021/12/31 17:56:54;;;;;;;;;;;;;;;;;;10393762;28;20034;-83
2021/12/31 18:01:55;;;;;;;5.30;3.80;;;;;;;;;;10400432;28;19912;-82
2021/12/31 18:06:56;;;;;;;4.53;3.72;;;;;;;;;;10414011;28;20033;-81
2021/12/31 18:11:57;;;;;;;7.38;4.95;;;;;;;;;;10399099;28;20022;-82
2021/12/31 18:16:58;;;;;;;6.72;3.70;;;;;;;;;;10392846;28;20038;-83
2021/12/31 18:22:00;;;;;;;7.32;4.68;;;;;;;;;;10390859;28;20025;-82
2021/12/31 18:27:01;;;;;;;8.10;4.35;;;;;;;;;;10390757;28;20056;-82
2021/12/31 18:32:02;;;;;;;4.53;3.45;;;;;;;;;;10385116;28;20025;-82
2021/12/31 18:37:03;;;;;;;7.05;4.50;;;;;;;;;;10384281;28;20052;-82
2021/12/31 18:42:05;;;;;;;6.82;4.63;;;;;;;;;;10386087;28;20040;-83
2021/12/31 18:47:18;;;;;;;5.95;3.75;;;;;;;;;;10405476;28;20048;-82
2021/12/31 18:52:19;;;;;;;6.10;3.03;;;;;;;;;;10384783;28;20403;-82
2021/12/31 18:57:23;;;;;;;6.50;4.40;;;;;;;;;;10383349;28;20034;-82
2021/12/31 19:02:25;;;;;;;5.82;3.25;;;;;;;;;;10383828;28;20018;-82
2021/12/31 19:07:26;;;;;;;4.20;2.70;;;;;;;;;;10386002;28;20030;-82
2021/12/31 19:12:27;;;;;;;;;;;;;;;;;;10384650;28;20033;-81
2021/12/31 19:17:28;;;;;;;6.88;4.32;;;;;;;;;;10382636;28;19909;-82
2021/12/31 19:22:29;;;;;;;6.22;4.10;;;;;;;;;;10388156;28;20026;-82
2021/12/31 19:27:31;;;;;;;7.95;4.60;;;;;;;;;;10383912;28;20022;-82
2021/12/31 19:32:32;;;;;;;4.07;3.35;;;;;;;;;;10389311;28;20502;-81
2021/12/31 19:37:34;;;;;;;6.05;4.50;;;;;;;;;;10389214;28;20030;-81
2021/12/31 19:42:35;;;;;;;5.30;4.22;;;;;;;;;;10391563;28;20018;-81
2021/12/31 19:47:35;;;;;;;;;;;;;;;;;;10392074;28;20037;-82
2021/12/31 19:52:36;;;;;;;6.57;4.55;;;;;;;;;;10390896;28;19960;-81
2021/12/31 19:57:37;;;;;;;;;;;;;;;;;;10391947;28;20066;-81
2021/12/31 20:02:38;;;;;;;7.55;5.07;;;;;;;;;;10388641;28;20358;-81
2021/12/31 20:07:39;;;;;;;;;;;;;;;;;;10386348;28;20098;-82
2021/12/31 20:12:41;;;;;;;7.22;5.10;;;;;;;;;;10389216;28;19905;-82
2021/12/31 20:17:43;;;;;;;7.32;4.80;;;;;;;;;;10399274;28;20060;-82
2021/12/31 20:22:44;;;;;;;8.55;6.85;;;;;;;;;;10387980;28;20022;-82
2021/12/31 20:27:46;;;;;;;7.07;5.72;;;;;;;;;;10385095;28;20472;-81
2021/12/31 20:32:48;;;;;;;5.93;4.70;;;;;;;;;;10386378;28;20030;-81
2021/12/31 20:37:49;;;;;;;6.47;4.55;;;;;;;;;;10380582;28;20048;-82
2021/12/31 20:42:50;;;;;;;;;;;;;;;;;;10388053;28;20029;-82
2021/12/31 20:47:51;;;;;;;6.80;4.70;;;;;;;;;;10390974;28;19914;-82
2021/12/31 20:52:51;;;;;;;;;;;;;;;;;;10409285;28;20014;-81
2021/12/31 20:57:53;;;;;;;7.28;4.78;;;;;;;;;;10385419;28;19913;-82
2021/12/31 21:02:54;;;;;;;7.00;5.32;;;;;;;;;;10381615;28;20106;-81
2021/12/31 21:07:55;;;;;;;7.50;5.25;;;;;;;;;;10385443;28;20487;-82
2021/12/31 21:12:57;;;;;;;4.78;3.97;;;;;;;;;;10394228;28;20097;-81
2021/12/31 21:17:58;;;;;;;4.70;3.40;;;;;;;;;;10382832;28;20479;-82
2021/12/31 21:22:59;;;;;;;6.20;3.78;;;;;;;;;;10383748;28;20056;-82
2021/12/31 21:28:00;;;;;;;5.03;3.60;;;;;;;;;;10386555;28;20022;-83
2021/12/31 21:33:01;;;;;;;8.02;4.93;;;;;;;;;;10386396;28;20105;-82
2021/12/31 21:38:03;;;;;;;6.63;4.50;;;;;;;;;;10394692;28;20034;-81
2021/12/31 21:43:04;;;;;;;4.93;3.85;;;;;;;;;;10397058;28;20022;-81
2021/12/31 21:48:05;;;;;;;4.45;3.13;;;;;;;;;;10395457;28;20075;-82
2021/12/31 21:53:06;;;;;;;5.38;3.55;;;;;;;;;;10416297;28;20037;-81
2021/12/31 21:58:12;;;;;;;4.28;3.08;;;;;;;;;;10394976;28;20045;-81
2021/12/31 22:03:16;;;;;;;4.18;2.60;;;;;;;;;;10387797;28;20022;-82
2021/12/31 22:08:17;;;;;;;5.28;3.42;;;;;;;;;;10393700;28;20030;-81
2021/12/31 22:13:18;;;;;;;7.20;4.57;;;;;;;;;;10393470;28;20034;-82
2021/12/31 22:18:19;;;;;;;6.93;3.60;;;;;;;;;;10393441;28;20022;-81
2021/12/31 22:23:20;;;;;;;5.88;3.85;;;;;;;;;;10392740;28;20018;-81
2021/12/31 22:28:21;;;;;;;5.07;3.20;;;;;;;;;;10394307;28;20033;-82
2021/12/31 22:33:22;;;;;;;5.47;3.72;;;;;;;;;;10409190;28;20088;-81
2021/12/31 22:38:24;;;;;;;5.00;4.07;;;;;;;;;;10397701;28;20030;-82
2021/12/31 22:43:25;;;;;;;5.13;3.53;;;;;;;;;;10407819;28;20022;-81
2021/12/31 22:48:26;;;;;;;5.68;3.70;;;;;;;;;;10410345;28;20052;-81
2021/12/31 22:53:26;;;;;;;5.63;3.50;;;;;;;;;;10412425;28;20045;-82
2021/12/31 22:58:28;;;;;;;5.65;3.88;;;;;;;;;;10412399;28;20030;-82
2021/12/31 23:03:29;;;;;;;37.97;31.50;;;;;;;;;;10412684;28;20038;-82
2021/12/31 23:08:30;;;;;;;11.27;7.65;;;;;;;;;;10413274;28;20014;-81
2021/12/31 23:13:32;;;;;;;8.00;4.85;;;;;;;;;;10412951;28;20029;-81
2021/12/31 23:18:33;;;;;;;10.15;6.65;;;;;;;;;;10414968;28;20045;-81
2021/12/31 23:23:35;;;;;;;13.88;9.93;;;;;;;;;;10413255;28;20030;-81
2021/12/31 23:28:37;;;;;;;11.43;6.60;;;;;;;;;;10415945;28;20040;-81
2021/12/31 23:33:39;;;;;;;17.42;13.15;;;;;;;;;;10418352;28;20097;-81
2021/12/31 23:38:40;;;;;;;12.50;9.65;;;;;;;;;;10421513;28;20059;-81
2021/12/31 23:43:42;;;;;;;20.05;15.10;;;;;;;;;;10420791;28;20026;-81
2021/12/31 23:48:44;;;;;;;16.45;12.82;;;;;;;;;;10417723;28;20045;-81
2021/12/31 23:53:45;;;;;;;12.25;10.13;;;;;;;;;;10418121;28;20083;-81
2021/12/31 23:58:46;;;;;;;14.93;12.90;;;;;;;;;;10420314;28;20025;-81
